createdAt,value
2017-03-26T00:00:02.749Z,0
2017-03-26T00:00:12.554Z,0
2017-03-26T00:00:22.640Z,0
2017-03-26T00:00:32.443Z,0
2017-03-26T00:00:42.249Z,0
2017-03-26T00:00:52.342Z,0
2017-03-26T00:01:02.443Z,0
2017-03-26T00:01:12.579Z,0
2017-03-26T00:01:22.668Z,0
2017-03-26T00:01:32.474Z,0
2017-03-26T00:01:42.563Z,0
2017-03-26T00:01:52.330Z,0
2017-03-26T00:02:02.426Z,0
2017-03-26T00:02:12.236Z,0
2017-03-26T00:02:22.042Z,0
2017-03-26T00:02:32.138Z,0
2017-03-26T00:02:42.241Z,0
2017-03-26T00:02:51.766Z,0
2017-03-26T00:03:01.866Z,0
2017-03-26T00:03:11.963Z,0
2017-03-26T00:03:22.056Z,0
2017-03-26T00:03:31.863Z,0
2017-03-26T00:03:41.979Z,0
2017-03-26T00:03:52.085Z,0
2017-03-26T00:04:02.178Z,0
2017-03-26T00:04:11.696Z,99.99
2017-03-26T00:04:21.793Z,0
2017-03-26T00:04:31.888Z,0.05
2017-03-26T00:04:41.690Z,0
2017-03-26T00:04:51.791Z,0
2017-03-26T00:05:01.890Z,0
2017-03-26T00:05:11.987Z,0
2017-03-26T00:05:21.803Z,0
2017-03-26T00:05:31.898Z,0
2017-03-26T00:05:41.986Z,0
2017-03-26T00:05:52.077Z,6.25
2017-03-26T00:06:02.167Z,0
2017-03-26T00:06:12.256Z,0
2017-03-26T00:06:22.060Z,0
2017-03-26T00:06:31.867Z,0
2017-03-26T00:06:41.965Z,0
2017-03-26T00:06:51.778Z,0
2017-03-26T00:07:01.869Z,0
2017-03-26T00:07:11.972Z,0
2017-03-26T00:07:22.064Z,0
2017-03-26T00:07:31.868Z,0.78
2017-03-26T00:07:41.963Z,0
2017-03-26T00:07:52.065Z,0
2017-03-26T00:08:02.165Z,0
2017-03-26T00:08:11.967Z,0
2017-03-26T00:08:21.780Z,0
2017-03-26T00:08:31.877Z,0
2017-03-26T00:08:41.974Z,0
2017-03-26T00:08:51.785Z,0.39
2017-03-26T00:09:01.318Z,0
2017-03-26T00:09:11.410Z,0
2017-03-26T00:09:21.509Z,0
2017-03-26T00:09:31.603Z,0
2017-03-26T00:09:41.695Z,0
2017-03-26T00:09:51.791Z,0
2017-03-26T00:10:01.314Z,0
2017-03-26T00:10:11.115Z,0
2017-03-26T00:10:20.916Z,0
2017-03-26T00:10:31.002Z,0
2017-03-26T00:10:40.802Z,0
2017-03-26T00:10:50.890Z,0
2017-03-26T00:11:00.985Z,0
2017-03-26T00:11:10.795Z,0
2017-03-26T00:11:20.604Z,0.05
2017-03-26T00:11:30.693Z,0
2017-03-26T00:11:40.491Z,0
2017-03-26T00:11:50.635Z,0
2017-03-26T00:12:00.729Z,0
2017-03-26T00:12:10.531Z,0
2017-03-26T00:12:20.625Z,0
2017-03-26T00:12:30.431Z,0
2017-03-26T00:12:40.528Z,0
2017-03-26T00:12:50.626Z,0
2017-03-26T00:13:00.435Z,0
2017-03-26T00:13:10.531Z,0
2017-03-26T00:13:20.338Z,0
2017-03-26T00:13:30.433Z,0
2017-03-26T00:13:40.243Z,0
2017-03-26T00:13:50.343Z,0
2017-03-26T00:14:00.496Z,0
2017-03-26T00:14:10.593Z,0
2017-03-26T00:14:20.740Z,0
2017-03-26T00:14:30.550Z,0
2017-03-26T00:14:40.639Z,0
2017-03-26T00:14:50.732Z,0
2017-03-26T00:15:00.839Z,0
2017-03-26T00:15:10.642Z,0
2017-03-26T00:15:20.731Z,0
2017-03-26T00:15:30.544Z,0
2017-03-26T00:15:40.359Z,0
2017-03-26T00:15:50.448Z,0
2017-03-26T00:16:00.538Z,0
2017-03-26T00:16:10.674Z,0
2017-03-26T00:16:20.489Z,0
2017-03-26T00:16:30.582Z,0
2017-03-26T00:16:40.382Z,0
2017-03-26T00:16:50.480Z,0
2017-03-26T00:17:00.568Z,0
2017-03-26T00:17:10.656Z,0
2017-03-26T00:17:20.460Z,0
2017-03-26T00:17:30.549Z,0
2017-03-26T00:17:40.403Z,0
2017-03-26T00:17:50.494Z,0
2017-03-26T00:18:00.306Z,0
2017-03-26T00:18:10.121Z,0
2017-03-26T00:18:20.217Z,0
2017-03-26T00:18:30.317Z,0
2017-03-26T00:18:40.408Z,0
2017-03-26T00:18:50.504Z,0
2017-03-26T00:19:00.596Z,0
2017-03-26T00:19:10.418Z,0
2017-03-26T00:19:20.230Z,0
2017-03-26T00:19:30.322Z,0
2017-03-26T00:19:40.418Z,0
2017-03-26T00:19:50.518Z,0
2017-03-26T00:20:00.610Z,0
2017-03-26T00:20:10.706Z,0
2017-03-26T00:20:20.513Z,0
2017-03-26T00:20:30.311Z,0
2017-03-26T00:20:40.403Z,0
2017-03-26T00:20:50.492Z,0
2017-03-26T00:21:00.343Z,0
2017-03-26T00:21:10.436Z,0
2017-03-26T00:21:20.237Z,0
2017-03-26T00:21:30.326Z,0
2017-03-26T00:21:40.420Z,0.1
2017-03-26T00:21:50.517Z,0
2017-03-26T00:22:00.323Z,0
2017-03-26T00:22:10.413Z,0
2017-03-26T00:22:20.217Z,0.05
2017-03-26T00:22:30.019Z,0
2017-03-26T00:22:40.102Z,0
2017-03-26T00:22:50.202Z,0
2017-03-26T00:23:00.298Z,0
2017-03-26T00:23:10.390Z,0
2017-03-26T00:23:20.494Z,0
2017-03-26T00:23:30.593Z,0
2017-03-26T00:23:40.685Z,0
2017-03-26T00:23:50.496Z,0
2017-03-26T00:24:00.597Z,0
2017-03-26T00:24:10.690Z,0
2017-03-26T00:24:20.792Z,0
2017-03-26T00:24:30.886Z,0
2017-03-26T00:24:40.996Z,0
2017-03-26T00:24:51.097Z,0
2017-03-26T00:25:01.207Z,0
2017-03-26T00:25:11.020Z,0
2017-03-26T00:25:21.116Z,0
2017-03-26T00:25:31.212Z,0
2017-03-26T00:25:41.307Z,0
2017-03-26T00:25:51.113Z,0
2017-03-26T00:26:01.209Z,0
2017-03-26T00:26:11.019Z,0
2017-03-26T00:26:20.818Z,0
2017-03-26T00:26:30.623Z,0
2017-03-26T00:26:40.717Z,0
2017-03-26T00:26:50.807Z,0
2017-03-26T00:27:00.615Z,0
2017-03-26T00:27:10.424Z,0.1
2017-03-26T00:27:20.563Z,0
2017-03-26T00:27:30.656Z,0
2017-03-26T00:27:40.758Z,0
2017-03-26T00:27:50.859Z,0
2017-03-26T00:28:00.953Z,0
2017-03-26T00:28:10.766Z,0
2017-03-26T00:28:20.869Z,0
2017-03-26T00:28:30.968Z,0
2017-03-26T00:28:41.061Z,0
2017-03-26T00:28:50.870Z,0
2017-03-26T00:29:00.976Z,0
2017-03-26T00:29:11.078Z,0
2017-03-26T00:29:21.178Z,0
2017-03-26T00:29:31.269Z,0
2017-03-26T00:29:41.402Z,0
2017-03-26T00:29:51.495Z,0
2017-03-26T00:30:01.327Z,0
2017-03-26T00:30:11.144Z,0
2017-03-26T00:30:21.287Z,0
2017-03-26T00:30:31.383Z,0
2017-03-26T00:30:41.473Z,0
2017-03-26T00:30:51.562Z,0
2017-03-26T00:31:01.367Z,0
2017-03-26T00:31:11.467Z,0
2017-03-26T00:31:21.562Z,0
2017-03-26T00:31:31.659Z,0
2017-03-26T00:31:41.463Z,0
2017-03-26T00:31:51.267Z,0
2017-03-26T00:32:01.356Z,0
2017-03-26T00:32:11.159Z,0
2017-03-26T00:32:21.254Z,0
2017-03-26T00:32:31.353Z,0
2017-03-26T00:32:41.448Z,0
2017-03-26T00:32:51.539Z,0
2017-03-26T00:33:01.345Z,0
2017-03-26T00:33:11.446Z,0
2017-03-26T00:33:21.538Z,0
2017-03-26T00:33:31.650Z,0
2017-03-26T00:33:41.177Z,0
2017-03-26T00:33:51.275Z,0
2017-03-26T00:34:01.379Z,0
2017-03-26T00:34:11.486Z,0
2017-03-26T00:34:21.586Z,0
2017-03-26T00:34:31.680Z,0
2017-03-26T00:34:41.491Z,0
2017-03-26T00:34:51.587Z,0
2017-03-26T00:35:01.405Z,0
2017-03-26T00:35:11.216Z,0
2017-03-26T00:35:21.032Z,0
2017-03-26T00:35:30.834Z,0
2017-03-26T00:35:40.633Z,0
2017-03-26T00:35:50.735Z,0
2017-03-26T00:36:00.825Z,0
2017-03-26T00:36:10.919Z,0
2017-03-26T00:36:20.733Z,0
2017-03-26T00:36:30.840Z,0
2017-03-26T00:36:40.647Z,0
2017-03-26T00:36:50.741Z,0
2017-03-26T00:37:00.829Z,0
2017-03-26T00:37:10.923Z,0
2017-03-26T00:37:20.721Z,0
2017-03-26T00:37:30.810Z,0
2017-03-26T00:37:40.912Z,0
2017-03-26T00:37:51.005Z,0
2017-03-26T00:38:01.114Z,0
2017-03-26T00:38:11.214Z,0
2017-03-26T00:38:20.735Z,0
2017-03-26T00:38:30.543Z,0
2017-03-26T00:38:40.707Z,0
2017-03-26T00:38:50.803Z,0
2017-03-26T00:39:00.905Z,0
2017-03-26T00:39:11.050Z,0
2017-03-26T00:39:21.154Z,1.56
2017-03-26T00:39:31.249Z,0
2017-03-26T00:39:41.339Z,0
2017-03-26T00:39:51.436Z,0
2017-03-26T00:40:01.526Z,0
2017-03-26T00:40:11.634Z,0
2017-03-26T00:40:21.722Z,0
2017-03-26T00:40:31.238Z,0
2017-03-26T00:40:41.327Z,0
2017-03-26T00:40:51.419Z,0
2017-03-26T00:41:01.513Z,0
2017-03-26T00:41:11.332Z,0
2017-03-26T00:41:21.422Z,0
2017-03-26T00:41:31.226Z,0
2017-03-26T00:41:41.318Z,0
2017-03-26T00:41:51.412Z,0
2017-03-26T00:42:01.507Z,0
2017-03-26T00:42:11.601Z,0
2017-03-26T00:42:21.695Z,0
2017-03-26T00:42:31.502Z,0
2017-03-26T00:42:41.606Z,0
2017-03-26T00:42:51.699Z,0
2017-03-26T00:43:01.508Z,0
2017-03-26T00:43:11.610Z,0
2017-03-26T00:43:21.711Z,0
2017-03-26T00:43:31.231Z,0
2017-03-26T00:43:41.330Z,0
2017-03-26T00:43:51.143Z,0
2017-03-26T00:44:01.257Z,0
2017-03-26T00:44:11.353Z,0
2017-03-26T00:44:21.217Z,0
2017-03-26T00:44:31.018Z,0
2017-03-26T00:44:41.114Z,0
2017-03-26T00:44:51.209Z,0
2017-03-26T00:45:01.306Z,0
2017-03-26T00:45:11.403Z,0
2017-03-26T00:45:21.503Z,0
2017-03-26T00:45:31.307Z,0
2017-03-26T00:45:41.395Z,0
2017-03-26T00:45:51.486Z,0
2017-03-26T00:46:01.576Z,0
2017-03-26T00:46:11.669Z,0
2017-03-26T00:46:21.766Z,0
2017-03-26T00:46:31.858Z,0
2017-03-26T00:46:41.949Z,0
2017-03-26T00:46:51.749Z,0
2017-03-26T00:47:01.837Z,0
2017-03-26T00:47:11.638Z,0
2017-03-26T00:47:21.445Z,0.05
2017-03-26T00:47:31.540Z,0
2017-03-26T00:47:41.636Z,0
2017-03-26T00:47:51.784Z,0
2017-03-26T00:48:01.886Z,0
2017-03-26T00:48:11.986Z,0
2017-03-26T00:48:22.084Z,0
2017-03-26T00:48:31.602Z,100
2017-03-26T00:48:41.697Z,0
2017-03-26T00:48:51.791Z,0
2017-03-26T00:49:01.889Z,0
2017-03-26T00:49:11.981Z,0
2017-03-26T00:49:22.085Z,0
2017-03-26T00:49:32.191Z,0
2017-03-26T00:49:42.282Z,0
2017-03-26T00:49:52.380Z,0
2017-03-26T00:50:02.473Z,0
2017-03-26T00:50:12.561Z,0
2017-03-26T00:50:22.648Z,0.02
2017-03-26T00:50:32.740Z,0
2017-03-26T00:50:42.884Z,0
2017-03-26T00:50:52.979Z,6.25
2017-03-26T00:51:03.072Z,0
2017-03-26T00:51:13.164Z,0
2017-03-26T00:51:22.964Z,0
2017-03-26T00:51:33.056Z,0
2017-03-26T00:51:43.201Z,0
2017-03-26T00:51:53.300Z,0
2017-03-26T00:52:03.398Z,0
2017-03-26T00:52:13.497Z,0
2017-03-26T00:52:23.302Z,0
2017-03-26T00:52:33.392Z,0
2017-03-26T00:52:43.201Z,100
2017-03-26T00:52:53.369Z,0
2017-03-26T00:53:03.485Z,0
2017-03-26T00:53:13.578Z,0
2017-03-26T00:53:23.679Z,0.39
2017-03-26T00:53:33.782Z,0
2017-03-26T00:53:43.880Z,0
2017-03-26T00:53:53.971Z,0
2017-03-26T00:54:04.143Z,0
2017-03-26T00:54:13.958Z,0
2017-03-26T00:54:24.059Z,0
2017-03-26T00:54:34.154Z,0
2017-03-26T00:54:44.019Z,0
2017-03-26T00:54:54.117Z,0
2017-03-26T00:55:04.221Z,0
2017-03-26T00:55:14.027Z,0
2017-03-26T00:55:24.117Z,0
2017-03-26T00:55:34.211Z,0
2017-03-26T00:55:44.307Z,0.39
2017-03-26T00:55:54.401Z,0
2017-03-26T00:56:04.203Z,0
2017-03-26T00:56:14.007Z,0
2017-03-26T00:56:24.104Z,0
2017-03-26T00:56:34.202Z,0
2017-03-26T00:56:44.295Z,0
2017-03-26T00:56:54.384Z,0
2017-03-26T00:57:04.483Z,0
2017-03-26T00:57:14.577Z,0
2017-03-26T00:57:24.382Z,0
2017-03-26T00:57:34.477Z,0
2017-03-26T00:57:44.571Z,0
2017-03-26T00:57:54.668Z,0
2017-03-26T00:58:04.773Z,0
2017-03-26T00:58:14.585Z,0
2017-03-26T00:58:24.700Z,0
2017-03-26T00:58:34.512Z,0
2017-03-26T00:58:44.605Z,0
2017-03-26T00:58:54.700Z,0
2017-03-26T00:59:04.501Z,0
2017-03-26T00:59:14.604Z,0
2017-03-26T00:59:24.703Z,0
2017-03-26T00:59:34.800Z,0
2017-03-26T00:59:44.891Z,0
2017-03-26T00:59:54.987Z,0
2017-03-26T01:00:05.148Z,0
2017-03-26T01:00:15.239Z,0
2017-03-26T01:00:25.331Z,0
2017-03-26T01:00:35.425Z,0
2017-03-26T01:00:45.519Z,0
2017-03-26T01:00:55.606Z,0
2017-03-26T01:01:05.702Z,0
2017-03-26T01:01:15.506Z,0
2017-03-26T01:01:25.597Z,0
2017-03-26T01:01:35.458Z,0
2017-03-26T01:01:45.549Z,0
2017-03-26T01:01:55.636Z,0
2017-03-26T01:02:05.443Z,0
2017-03-26T01:02:15.539Z,0
2017-03-26T01:02:25.353Z,0
2017-03-26T01:02:35.155Z,0
2017-03-26T01:02:45.252Z,0
2017-03-26T01:02:55.354Z,0
2017-03-26T01:03:05.450Z,0
2017-03-26T01:03:15.541Z,0
2017-03-26T01:03:25.638Z,0
2017-03-26T01:03:35.736Z,0
2017-03-26T01:03:45.834Z,0
2017-03-26T01:03:55.934Z,0
2017-03-26T01:04:06.025Z,0
2017-03-26T01:04:16.121Z,0
2017-03-26T01:04:25.933Z,0
2017-03-26T01:04:35.454Z,0
2017-03-26T01:04:45.545Z,0
2017-03-26T01:04:55.642Z,0
2017-03-26T01:05:05.745Z,0
2017-03-26T01:05:15.836Z,0
2017-03-26T01:05:25.929Z,0
2017-03-26T01:05:36.015Z,0
2017-03-26T01:05:46.101Z,0
2017-03-26T01:05:56.196Z,0
2017-03-26T01:06:06.293Z,0
2017-03-26T01:06:16.383Z,0
2017-03-26T01:06:26.190Z,0
2017-03-26T01:06:36.285Z,0
2017-03-26T01:06:46.093Z,0
2017-03-26T01:06:56.228Z,0
2017-03-26T01:07:06.034Z,0
2017-03-26T01:07:16.130Z,0
2017-03-26T01:07:25.942Z,0
2017-03-26T01:07:36.039Z,0
2017-03-26T01:07:46.157Z,0
2017-03-26T01:07:56.253Z,0
2017-03-26T01:08:06.367Z,0
2017-03-26T01:08:16.467Z,0
2017-03-26T01:08:26.564Z,0
2017-03-26T01:08:36.678Z,0
2017-03-26T01:08:46.784Z,0
2017-03-26T01:08:56.880Z,0
2017-03-26T01:09:06.979Z,0
2017-03-26T01:09:17.070Z,0
2017-03-26T01:09:27.173Z,0
2017-03-26T01:09:36.983Z,0
2017-03-26T01:09:47.080Z,0
2017-03-26T01:09:57.175Z,0
2017-03-26T01:10:07.272Z,0
2017-03-26T01:10:17.369Z,0
2017-03-26T01:10:27.460Z,6.25
2017-03-26T01:10:37.554Z,0
2017-03-26T01:10:47.375Z,0.39
2017-03-26T01:10:57.463Z,0
2017-03-26T01:11:07.554Z,0
2017-03-26T01:11:17.644Z,0
2017-03-26T01:11:27.739Z,0
2017-03-26T01:11:37.827Z,0
2017-03-26T01:11:47.633Z,0
2017-03-26T01:11:57.728Z,0
2017-03-26T01:12:07.822Z,0
2017-03-26T01:12:17.922Z,0
2017-03-26T01:12:28.053Z,0
2017-03-26T01:12:38.150Z,0
2017-03-26T01:12:48.248Z,0
2017-03-26T01:12:58.063Z,0
2017-03-26T01:13:08.159Z,0
2017-03-26T01:13:18.024Z,0
2017-03-26T01:13:28.126Z,0
2017-03-26T01:13:38.225Z,0
2017-03-26T01:13:48.316Z,0
2017-03-26T01:13:58.424Z,0
2017-03-26T01:14:08.515Z,0
2017-03-26T01:14:18.612Z,0
2017-03-26T01:14:28.707Z,0
2017-03-26T01:14:38.797Z,0
2017-03-26T01:14:48.897Z,0
2017-03-26T01:14:58.702Z,0
2017-03-26T01:15:08.809Z,0
2017-03-26T01:15:18.896Z,0
2017-03-26T01:15:28.704Z,0
2017-03-26T01:15:38.795Z,0
2017-03-26T01:15:48.895Z,0
2017-03-26T01:15:58.980Z,0
2017-03-26T01:16:08.508Z,0
2017-03-26T01:16:18.309Z,0
2017-03-26T01:16:28.117Z,0
2017-03-26T01:16:38.210Z,0
2017-03-26T01:16:48.300Z,0
2017-03-26T01:16:58.104Z,0
2017-03-26T01:17:08.194Z,0
2017-03-26T01:17:18.008Z,0
2017-03-26T01:17:28.102Z,0
2017-03-26T01:17:38.199Z,0
2017-03-26T01:17:48.302Z,0
2017-03-26T01:17:58.401Z,0
2017-03-26T01:18:08.204Z,0
2017-03-26T01:18:18.298Z,0
2017-03-26T01:18:28.402Z,0
2017-03-26T01:18:38.503Z,0
2017-03-26T01:18:48.318Z,0
2017-03-26T01:18:58.415Z,0
2017-03-26T01:19:08.508Z,0
2017-03-26T01:19:18.603Z,0
2017-03-26T01:19:28.426Z,0
2017-03-26T01:19:38.237Z,0
2017-03-26T01:19:48.324Z,0
2017-03-26T01:19:58.420Z,0
2017-03-26T01:20:08.229Z,0
2017-03-26T01:20:18.322Z,0
2017-03-26T01:20:28.135Z,12.5
2017-03-26T01:20:37.949Z,0
2017-03-26T01:20:48.043Z,0
2017-03-26T01:20:58.134Z,0
2017-03-26T01:21:08.226Z,0
2017-03-26T01:21:18.029Z,0
2017-03-26T01:21:28.126Z,0
2017-03-26T01:21:38.224Z,0
2017-03-26T01:21:48.355Z,0
2017-03-26T01:21:58.445Z,0
2017-03-26T01:22:08.541Z,0
2017-03-26T01:22:18.637Z,0
2017-03-26T01:22:28.445Z,0
2017-03-26T01:22:37.963Z,0
2017-03-26T01:22:48.060Z,0
2017-03-26T01:22:58.149Z,0
2017-03-26T01:23:08.244Z,0
2017-03-26T01:23:18.050Z,0
2017-03-26T01:23:28.146Z,99.99
2017-03-26T01:23:37.959Z,0.39
2017-03-26T01:23:48.058Z,0
2017-03-26T01:23:58.148Z,0
2017-03-26T01:24:07.674Z,0
2017-03-26T01:24:17.775Z,0
2017-03-26T01:24:27.937Z,0.39
2017-03-26T01:24:38.033Z,0
2017-03-26T01:24:47.837Z,0
2017-03-26T01:24:57.936Z,0
2017-03-26T01:25:08.033Z,0
2017-03-26T01:25:18.122Z,0
2017-03-26T01:25:27.935Z,0
2017-03-26T01:25:38.029Z,0
2017-03-26T01:25:48.121Z,0
2017-03-26T01:25:58.214Z,0
2017-03-26T01:26:08.301Z,0
2017-03-26T01:26:18.395Z,0
2017-03-26T01:26:28.196Z,0
2017-03-26T01:26:38.291Z,0
2017-03-26T01:26:48.391Z,0
2017-03-26T01:26:58.197Z,0
2017-03-26T01:27:08.292Z,0
2017-03-26T01:27:18.392Z,0
2017-03-26T01:27:28.196Z,99.99
2017-03-26T01:27:38.299Z,0
2017-03-26T01:27:48.116Z,0
2017-03-26T01:27:58.212Z,0
2017-03-26T01:28:08.347Z,0
2017-03-26T01:28:18.435Z,0
2017-03-26T01:28:28.243Z,0
2017-03-26T01:28:38.342Z,0
2017-03-26T01:28:48.449Z,0
2017-03-26T01:28:58.542Z,0
2017-03-26T01:29:08.642Z,0.39
2017-03-26T01:29:18.735Z,0
2017-03-26T01:29:28.615Z,99.99
2017-03-26T01:29:38.706Z,99.99
2017-03-26T01:29:48.799Z,99.99
2017-03-26T01:29:58.891Z,0.39
2017-03-26T01:30:08.980Z,99.99
2017-03-26T01:30:18.793Z,99.99
2017-03-26T01:30:28.883Z,99.99
2017-03-26T01:30:38.971Z,99.99
2017-03-26T01:30:48.775Z,99.99
2017-03-26T01:30:58.635Z,99.99
2017-03-26T01:31:08.738Z,0
2017-03-26T01:31:18.878Z,99.99
2017-03-26T01:31:28.983Z,99.99
2017-03-26T01:31:38.787Z,0
2017-03-26T01:31:48.601Z,0
2017-03-26T01:31:58.720Z,99.99
2017-03-26T01:32:08.541Z,99.99
2017-03-26T01:32:18.343Z,99.99
2017-03-26T01:32:28.479Z,99.99
2017-03-26T01:32:38.006Z,99.99
2017-03-26T01:32:48.107Z,99.99
2017-03-26T01:32:58.207Z,99.99
2017-03-26T01:33:08.305Z,99.99
2017-03-26T01:33:18.405Z,99.99
2017-03-26T01:33:28.209Z,0
2017-03-26T01:33:38.305Z,0
2017-03-26T01:33:48.402Z,99.99
2017-03-26T01:33:58.208Z,0
2017-03-26T01:34:08.305Z,0
2017-03-26T01:34:18.110Z,99.99
2017-03-26T01:34:27.920Z,99.99
2017-03-26T01:34:37.439Z,99.99
2017-03-26T01:34:47.251Z,99.99
2017-03-26T01:34:57.348Z,99.99
2017-03-26T01:35:07.150Z,99.99
2017-03-26T01:35:16.956Z,99.99
2017-03-26T01:35:27.044Z,99.99
2017-03-26T01:35:36.850Z,99.99
2017-03-26T01:35:46.948Z,99.99
2017-03-26T01:35:57.040Z,99.99
2017-03-26T01:36:07.140Z,99.99
2017-03-26T01:36:17.232Z,99.99
2017-03-26T01:36:27.322Z,99.99
2017-03-26T01:36:37.410Z,99.99
2017-03-26T01:36:47.502Z,99.99
2017-03-26T01:36:57.597Z,99.99
2017-03-26T01:37:07.689Z,99.99
2017-03-26T01:37:17.787Z,99.99
2017-03-26T01:37:27.601Z,99.99
2017-03-26T01:37:37.395Z,99.99
2017-03-26T01:37:47.210Z,99.99
2017-03-26T01:37:57.321Z,99.99
2017-03-26T01:38:07.414Z,99.99
2017-03-26T01:38:17.512Z,99.99
2017-03-26T01:38:27.608Z,0
2017-03-26T01:38:37.703Z,0
2017-03-26T01:38:47.798Z,0
2017-03-26T01:38:57.602Z,0
2017-03-26T01:39:07.702Z,0
2017-03-26T01:39:17.811Z,0
2017-03-26T01:39:27.623Z,0
2017-03-26T01:39:37.427Z,0
2017-03-26T01:39:47.518Z,0
2017-03-26T01:39:57.619Z,0
2017-03-26T01:40:07.762Z,99.99
2017-03-26T01:40:17.861Z,0.39
2017-03-26T01:40:27.949Z,0
2017-03-26T01:40:38.046Z,0
2017-03-26T01:40:48.138Z,0
2017-03-26T01:40:58.229Z,0
2017-03-26T01:41:08.315Z,0
2017-03-26T01:41:18.132Z,0
2017-03-26T01:41:27.934Z,0
2017-03-26T01:41:37.736Z,0
2017-03-26T01:41:47.887Z,0.39
2017-03-26T01:41:57.990Z,0
2017-03-26T01:42:08.086Z,0
2017-03-26T01:42:17.898Z,0
2017-03-26T01:42:28.001Z,0
2017-03-26T01:42:37.519Z,0
2017-03-26T01:42:47.618Z,0
2017-03-26T01:42:57.726Z,0
2017-03-26T01:43:07.826Z,0
2017-03-26T01:43:17.639Z,0
2017-03-26T01:43:27.446Z,0
2017-03-26T01:43:37.542Z,0
2017-03-26T01:43:47.637Z,0
2017-03-26T01:43:57.736Z,0
2017-03-26T01:44:07.830Z,0
2017-03-26T01:44:17.931Z,0
2017-03-26T01:44:27.749Z,0
2017-03-26T01:44:37.842Z,0
2017-03-26T01:44:47.942Z,0
2017-03-26T01:44:58.042Z,0
2017-03-26T01:45:07.855Z,0
2017-03-26T01:45:17.940Z,0
2017-03-26T01:45:27.745Z,0
2017-03-26T01:45:37.842Z,0
2017-03-26T01:45:47.926Z,0
2017-03-26T01:45:57.730Z,0
2017-03-26T01:46:07.541Z,0
2017-03-26T01:46:17.641Z,0
2017-03-26T01:46:27.742Z,0
2017-03-26T01:46:37.835Z,0
2017-03-26T01:46:47.346Z,0
2017-03-26T01:46:57.454Z,0
2017-03-26T01:47:07.548Z,0
2017-03-26T01:47:17.639Z,0
2017-03-26T01:47:27.733Z,0
2017-03-26T01:47:37.835Z,0
2017-03-26T01:47:47.933Z,0
2017-03-26T01:47:58.035Z,0
2017-03-26T01:48:08.131Z,0
2017-03-26T01:48:17.950Z,0
2017-03-26T01:48:27.464Z,0
2017-03-26T01:48:37.563Z,0
2017-03-26T01:48:47.665Z,0
2017-03-26T01:48:57.758Z,0
2017-03-26T01:49:07.854Z,0
2017-03-26T01:49:17.950Z,0
2017-03-26T01:49:27.474Z,0
2017-03-26T01:49:37.563Z,0
2017-03-26T01:49:47.664Z,0
2017-03-26T01:49:57.481Z,0
2017-03-26T01:50:07.292Z,0
2017-03-26T01:50:17.384Z,0.05
2017-03-26T01:50:27.484Z,0
2017-03-26T01:50:37.571Z,0
2017-03-26T01:50:47.665Z,50
2017-03-26T01:50:57.774Z,0
2017-03-26T01:51:07.579Z,0
2017-03-26T01:51:17.670Z,0
2017-03-26T01:51:27.475Z,3.12
2017-03-26T01:51:37.568Z,0
2017-03-26T01:51:47.659Z,0
2017-03-26T01:51:57.749Z,0
2017-03-26T01:52:07.844Z,0
2017-03-26T01:52:17.942Z,0
2017-03-26T01:52:28.034Z,0
2017-03-26T01:52:38.128Z,0
2017-03-26T01:52:48.231Z,0
2017-03-26T01:52:58.333Z,0
2017-03-26T01:53:08.430Z,0.19
2017-03-26T01:53:18.529Z,0
2017-03-26T01:53:28.047Z,0
2017-03-26T01:53:38.141Z,0
2017-03-26T01:53:48.238Z,0
2017-03-26T01:53:58.334Z,0
2017-03-26T01:54:08.438Z,0
2017-03-26T01:54:18.535Z,0
2017-03-26T01:54:28.343Z,0
2017-03-26T01:54:38.447Z,0
2017-03-26T01:54:48.535Z,0
2017-03-26T01:54:58.634Z,0
2017-03-26T01:55:08.468Z,0
2017-03-26T01:55:18.555Z,0
2017-03-26T01:55:28.358Z,0
2017-03-26T01:55:38.451Z,0.39
2017-03-26T01:55:48.542Z,0.39
2017-03-26T01:55:58.636Z,0
2017-03-26T01:56:08.739Z,0
2017-03-26T01:56:18.836Z,0
2017-03-26T01:56:28.974Z,0
2017-03-26T01:56:38.785Z,0
2017-03-26T01:56:48.882Z,0
2017-03-26T01:56:58.995Z,0
2017-03-26T01:57:09.129Z,0
2017-03-26T01:57:18.935Z,0
2017-03-26T01:57:28.504Z,0
2017-03-26T01:57:38.020Z,0.1
2017-03-26T01:57:48.116Z,0.01
2017-03-26T01:57:57.927Z,0
2017-03-26T01:58:08.031Z,0
2017-03-26T01:58:18.126Z,0
2017-03-26T01:58:28.222Z,0
2017-03-26T01:58:38.030Z,0
2017-03-26T01:58:48.130Z,0
2017-03-26T01:58:58.228Z,0
2017-03-26T01:59:08.327Z,0
2017-03-26T01:59:18.426Z,0
2017-03-26T01:59:28.528Z,0
2017-03-26T01:59:38.629Z,0
2017-03-26T01:59:48.724Z,0
2017-03-26T01:59:58.822Z,0
2017-03-26T02:00:08.673Z,0
2017-03-26T02:00:18.765Z,0
2017-03-26T02:00:28.855Z,0
2017-03-26T02:00:38.944Z,0
2017-03-26T02:00:49.082Z,0
2017-03-26T02:00:59.179Z,0
2017-03-26T02:01:08.700Z,0
2017-03-26T02:01:18.786Z,0
2017-03-26T02:01:28.872Z,0
2017-03-26T02:01:38.964Z,0
2017-03-26T02:01:49.056Z,0
2017-03-26T02:01:59.140Z,0
2017-03-26T02:02:08.655Z,0
2017-03-26T02:02:18.751Z,0
2017-03-26T02:02:28.558Z,0
2017-03-26T02:02:38.658Z,0
2017-03-26T02:02:48.757Z,0
2017-03-26T02:02:58.868Z,0
2017-03-26T02:03:08.957Z,0
2017-03-26T02:03:19.060Z,0
2017-03-26T02:03:29.155Z,0
2017-03-26T02:03:39.249Z,0.39
2017-03-26T02:03:49.356Z,0
2017-03-26T02:03:59.449Z,0
2017-03-26T02:04:09.541Z,0
2017-03-26T02:04:19.637Z,0
2017-03-26T02:04:29.741Z,0
2017-03-26T02:04:39.839Z,0
2017-03-26T02:04:49.929Z,0
2017-03-26T02:05:00.071Z,0
2017-03-26T02:05:09.881Z,0
2017-03-26T02:05:19.976Z,0
2017-03-26T02:05:30.119Z,0
2017-03-26T02:05:39.922Z,0
2017-03-26T02:05:50.010Z,0
2017-03-26T02:06:00.101Z,0
2017-03-26T02:06:10.195Z,0
2017-03-26T02:06:20.289Z,0
2017-03-26T02:06:30.390Z,0
2017-03-26T02:06:40.486Z,0
2017-03-26T02:06:50.579Z,0
2017-03-26T02:07:00.672Z,0
2017-03-26T02:07:10.766Z,0
2017-03-26T02:07:20.860Z,0
2017-03-26T02:07:30.952Z,0
2017-03-26T02:07:41.047Z,0
2017-03-26T02:07:51.140Z,0
2017-03-26T02:08:01.235Z,0
2017-03-26T02:08:11.041Z,0
2017-03-26T02:08:20.849Z,0
2017-03-26T02:08:30.941Z,0
2017-03-26T02:08:41.045Z,0
2017-03-26T02:08:51.142Z,0
2017-03-26T02:09:01.238Z,0
2017-03-26T02:09:11.046Z,0
2017-03-26T02:09:21.136Z,0
2017-03-26T02:09:31.234Z,0
2017-03-26T02:09:41.329Z,0
2017-03-26T02:09:51.420Z,0
2017-03-26T02:10:01.520Z,0
2017-03-26T02:10:11.328Z,0
2017-03-26T02:10:21.132Z,0
2017-03-26T02:10:31.224Z,0
2017-03-26T02:10:41.319Z,0
2017-03-26T02:10:51.122Z,0
2017-03-26T02:11:01.220Z,0
2017-03-26T02:11:11.312Z,0
2017-03-26T02:11:20.823Z,0
2017-03-26T02:11:30.906Z,0
2017-03-26T02:11:41.030Z,0
2017-03-26T02:11:51.129Z,0
2017-03-26T02:12:00.985Z,0
2017-03-26T02:12:10.510Z,0
2017-03-26T02:12:20.603Z,0
2017-03-26T02:12:30.716Z,0
2017-03-26T02:12:40.535Z,0
2017-03-26T02:12:50.347Z,0
2017-03-26T02:13:00.450Z,0
2017-03-26T02:13:10.547Z,0
2017-03-26T02:13:20.641Z,0
2017-03-26T02:13:30.737Z,0
2017-03-26T02:13:40.838Z,0
2017-03-26T02:13:50.940Z,0
2017-03-26T02:14:01.035Z,0
2017-03-26T02:14:10.849Z,0
2017-03-26T02:14:20.658Z,0
2017-03-26T02:14:30.465Z,0
2017-03-26T02:14:40.276Z,0
2017-03-26T02:14:50.370Z,6.25
2017-03-26T02:15:00.475Z,0
2017-03-26T02:15:10.567Z,0
2017-03-26T02:15:20.665Z,0
2017-03-26T02:15:30.481Z,0
2017-03-26T02:15:40.573Z,0
2017-03-26T02:15:50.668Z,0
2017-03-26T02:16:00.755Z,0
2017-03-26T02:16:10.558Z,0
2017-03-26T02:16:20.708Z,0
2017-03-26T02:16:30.512Z,0
2017-03-26T02:16:40.614Z,12.5
2017-03-26T02:16:50.428Z,0.39
2017-03-26T02:17:00.525Z,0
2017-03-26T02:17:10.622Z,0
2017-03-26T02:17:20.712Z,0
2017-03-26T02:17:30.825Z,0
2017-03-26T02:17:40.924Z,0
2017-03-26T02:17:51.022Z,0
2017-03-26T02:18:01.125Z,0
2017-03-26T02:18:11.229Z,0
2017-03-26T02:18:21.321Z,0
2017-03-26T02:18:31.139Z,0
2017-03-26T02:18:41.238Z,0
2017-03-26T02:18:51.340Z,0
2017-03-26T02:19:01.439Z,0
2017-03-26T02:19:11.595Z,0
2017-03-26T02:19:21.699Z,0
2017-03-26T02:19:31.278Z,0
2017-03-26T02:19:41.369Z,0
2017-03-26T02:19:51.460Z,0
2017-03-26T02:20:01.557Z,0
2017-03-26T02:20:11.363Z,0
2017-03-26T02:20:21.172Z,0
2017-03-26T02:20:31.260Z,0
2017-03-26T02:20:41.077Z,0.1
2017-03-26T02:20:51.172Z,0
2017-03-26T02:21:01.264Z,0
2017-03-26T02:21:11.403Z,0
2017-03-26T02:21:21.211Z,0
2017-03-26T02:21:30.733Z,0
2017-03-26T02:21:40.821Z,0
2017-03-26T02:21:50.917Z,0
2017-03-26T02:22:01.027Z,0
2017-03-26T02:22:11.115Z,0
2017-03-26T02:22:20.631Z,0
2017-03-26T02:22:30.719Z,0
2017-03-26T02:22:40.531Z,0
2017-03-26T02:22:50.632Z,0.39
2017-03-26T02:23:00.727Z,0
2017-03-26T02:23:10.819Z,0
2017-03-26T02:23:20.918Z,0
2017-03-26T02:23:30.737Z,0
2017-03-26T02:23:40.833Z,0.02
2017-03-26T02:23:50.938Z,0
2017-03-26T02:24:01.103Z,0
2017-03-26T02:24:11.204Z,0
2017-03-26T02:24:21.306Z,0
2017-03-26T02:24:31.402Z,0
2017-03-26T02:24:41.495Z,0
2017-03-26T02:24:51.297Z,0
2017-03-26T02:25:01.394Z,0
2017-03-26T02:25:11.198Z,0
2017-03-26T02:25:21.293Z,0
2017-03-26T02:25:31.382Z,0
2017-03-26T02:25:41.184Z,3.12
2017-03-26T02:25:51.270Z,0
2017-03-26T02:26:01.362Z,0